Alexis — WDB4961 — position and weather

sailwx.info

Track history (hours):
 
Tides and Currents Weather Stations Pressure Air Temp Water Temp Dewpoint Dewpoint Depression Visibility Wind Speed Wind Dir Waves Ship Positions

Alexis

Owner: Fordham, robert E, Monroe, WA. More information available from US FCC via Universal Licensing System and Coast Guard Vessel Documentation Center.

Last reported at 2017-Jul-24 18:30 UTC. Time now 2017-Jul-24 18:27 UTC.
Position N 48°24' W 123°18'.

Length 28 m; draft 2 m.

Type: Pleasure craft. MMSI: 366904250.

Date/timePositionNaut miles runAvg speedWind from/ knotsBaromVisibWave heightAir tempDewpointWater temp
2017-Jul-24 18:30N 48°24' W 123°18'4 8.3
2017-Jul-24 18:01N 48°25' W 123°24'1 0.1
2017-Jul-24 00:50N 48°25' W 123°22'1 3.5
2017-Jul-24 00:30N 48°25' W 123°24'4 7.7
2017-Jul-24 00:00N 48°24' W 123°18'4 8.8
2017-Jul-23 23:30N 48°28' W 123°16'4 8.9
2017-Jul-23 23:00N 48°32' W 123°20'4 7.9
2017-Jul-23 22:29N 48°36' W 123°22'3 7.0
2017-Jul-23 22:00N 48°39' W 123°23'2 3.1
2017-Jul-23 21:28N 48°40' W 123°24'0 0.0
2017-Jul-23 20:58N 48°40' W 123°24'0 0.0
2017-Jul-23 20:28N 48°40' W 123°24'0 0.0
2017-Jul-23 19:58N 48°40' W 123°24'0 0.0
2017-Jul-23 19:28N 48°40' W 123°24'0 0.0
2017-Jul-23 18:58N 48°40' W 123°24'0 0.0
2017-Jul-23 18:28N 48°40' W 123°24'0 0.0
2017-Jul-23 17:58N 48°40' W 123°24'0 0.0
2017-Jul-23 17:25N 48°40' W 123°24'0 0.0
2017-Jul-23 16:58N 48°40' W 123°24'0 0.0
2017-Jul-23 16:28N 48°40' W 123°24'0 0.0
2017-Jul-23 15:58N 48°40' W 123°24'0 0.0
2017-Jul-23 15:28N 48°40' W 123°24'0 0.0
2017-Jul-23 14:58N 48°40' W 123°24'0 0.0
2017-Jul-23 14:25N 48°40' W 123°24'0 0.0
2017-Jul-23 13:58N 48°40' W 123°24'0 0.0
2017-Jul-23 13:28N 48°40' W 123°24'0 0.0
2017-Jul-23 12:58N 48°40' W 123°24'0 0.0
2017-Jul-23 12:28N 48°40' W 123°24'0 0.0
2017-Jul-23 11:58N 48°40' W 123°24'0 0.0
2017-Jul-23 11:28N 48°40' W 123°24'0 0.0
2017-Jul-23 10:55N 48°40' W 123°24'0 0.0
2017-Jul-23 10:28N 48°40' W 123°24'0 0.0
2017-Jul-23 09:58N 48°40' W 123°24'0 0.0
2017-Jul-23 09:28N 48°40' W 123°24'0 0.0
2017-Jul-23 08:58N 48°40' W 123°24'0 0.0
2017-Jul-23 08:28N 48°40' W 123°24'0 0.0
2017-Jul-23 07:58N 48°40' W 123°24'0 0.0
2017-Jul-23 07:28N 48°40' W 123°24'0 0.0
2017-Jul-23 06:52N 48°40' W 123°24'0 0.0
2017-Jul-23 06:28N 48°40' W 123°24'0 0.0
2017-Jul-23 05:58N 48°40' W 123°24'0 0.0
2017-Jul-23 05:28N 48°40' W 123°24'0 0.0
2017-Jul-23 04:58N 48°40' W 123°24'0 0.0
2017-Jul-23 04:28N 48°40' W 123°24'0 0.0
2017-Jul-23 03:58N 48°40' W 123°24'0 0.0
2017-Jul-23 03:28N 48°40' W 123°24'0 0.0
2017-Jul-23 02:58N 48°40' W 123°24'0 0.0
2017-Jul-23 02:28N 48°40' W 123°24'0 0.0
2017-Jul-23 01:58N 48°40' W 123°24'0 0.0
2017-Jul-23 01:28N 48°40' W 123°24'0 0.0
2017-Jul-23 00:58N 48°40' W 123°24'0 0.0
2017-Jul-23 00:28N 48°40' W 123°24'0 0.0
2017-Jul-22 23:58N 48°40' W 123°24'0 0.0
2017-Jul-22 23:25N 48°40' W 123°24'0 0.0
2017-Jul-22 22:58N 48°40' W 123°24'0 0.0
2017-Jul-22 22:28N 48°40' W 123°24'0 0.0
2017-Jul-22 21:58N 48°40' W 123°24'0 0.0
2017-Jul-22 21:28N 48°40' W 123°24'0 0.0
2017-Jul-22 20:58N 48°40' W 123°24'0 0.0
2017-Jul-22 20:28N 48°40' W 123°24'0 0.0
2017-Jul-22 19:58N 48°40' W 123°24'0 0.0
2017-Jul-22 19:28N 48°40' W 123°24'0 0.0
2017-Jul-22 18:58N 48°40' W 123°24'0 0.0
2017-Jul-22 18:28N 48°40' W 123°24'0 0.0
2017-Jul-22 17:58N 48°40' W 123°24'0 0.0
2017-Jul-22 17:28N 48°40' W 123°24'0 0.0
2017-Jul-22 16:58N 48°40' W 123°24'0 0.0
2017-Jul-22 16:28N 48°40' W 123°24'0 0.0
2017-Jul-22 15:58N 48°40' W 123°24'0 0.0
2017-Jul-22 15:28N 48°40' W 123°24'0 0.0
2017-Jul-22 14:58N 48°40' W 123°24'0 0.0
2017-Jul-22 13:58N 48°40' W 123°24'0 0.0
2017-Jul-22 13:28N 48°40' W 123°24'0 0.0
2017-Jul-22 12:58N 48°40' W 123°24'0 0.0
2017-Jul-22 12:28N 48°40' W 123°24'0 0.0
2017-Jul-22 11:58N 48°40' W 123°24'0 0.0
2017-Jul-22 11:28N 48°40' W 123°24'0 0.0
2017-Jul-22 10:58N 48°40' W 123°24'0 0.0
2017-Jul-22 10:28N 48°40' W 123°24'0 0.0
2017-Jul-22 09:58N 48°40' W 123°24'0 0.0
2017-Jul-22 09:28N 48°40' W 123°24'0 0.0
2017-Jul-22 08:58N 48°40' W 123°24'0 0.0
2017-Jul-22 08:28N 48°40' W 123°24'0 0.0
2017-Jul-22 07:55N 48°40' W 123°24'0 0.0
2017-Jul-22 07:28N 48°40' W 123°24'0 0.0
2017-Jul-22 06:58N 48°40' W 123°24'0 0.0
2017-Jul-22 06:28N 48°40' W 123°24'0 0.0
2017-Jul-22 05:58N 48°40' W 123°24'0 0.0
2017-Jul-22 05:28N 48°40' W 123°24'0 0.0
2017-Jul-22 04:58N 48°40' W 123°24'0 0.0
2017-Jul-22 04:28N 48°40' W 123°24'0 0.0
2017-Jul-22 03:58N 48°40' W 123°24'0 0.0
2017-Jul-22 03:28N 48°40' W 123°24'0 0.0
2017-Jul-22 02:58N 48°40' W 123°24'0 0.0
2017-Jul-22 02:28N 48°40' W 123°24'0 0.0
2017-Jul-22 01:58N 48°40' W 123°24'0 0.0
2017-Jul-22 01:28N 48°40' W 123°24'0 0.0
2017-Jul-22 00:58N 48°40' W 123°24'0 0.0
2017-Jul-22 00:28N 48°40' W 123°24'0 0.0
2017-Jul-21 23:58N 48°40' W 123°24'0 0.0
2017-Jul-21 23:28N 48°40' W 123°24'0 0.0
2017-Jul-21 22:58N 48°40' W 123°24'0 0.0
2017-Jul-21 22:28N 48°40' W 123°24'0 0.0
2017-Jul-21 21:58N 48°40' W 123°24'0 0.0
2017-Jul-21 21:28N 48°40' W 123°24'0 0.0
2017-Jul-21 20:58N 48°40' W 123°24'0 0.0
2017-Jul-21 20:28N 48°40' W 123°24'0 0.0
2017-Jul-21 19:58N 48°40' W 123°24'0 0.0
2017-Jul-21 19:28N 48°40' W 123°24'0 0.0
2017-Jul-21 18:58N 48°40' W 123°24'0 0.0
2017-Jul-21 18:28N 48°40' W 123°24'0 0.0
2017-Jul-21 17:52N 48°40' W 123°24'0 0.0
2017-Jul-21 17:28N 48°40' W 123°24'0 0.0
2017-Jul-21 16:58N 48°40' W 123°24'0 0.0
2017-Jul-21 16:28N 48°40' W 123°24'2 5.2
2017-Jul-21 16:00N 48°43' W 123°23'10 0.2
2017-Jul-19 19:29N 48°52' W 123°24'610.1
2017-Jul-19 18:54N 48°47' W 123°20'410.6
2017-Jul-19 18:30N 48°43' W 123°21'3 5.9
2017-Jul-19 18:00N 48°40' W 123°24'0 0.7
2017-Jul-19 17:29N 48°40' W 123°24'1 1.6
2017-Jul-19 17:00N 48°40' W 123°23'5 9.5
2017-Jul-19 16:30N 48°38' W 123°17'5 9.4
2017-Jul-19 16:00N 48°38' W 123°09'5 9.7
2017-Jul-19 15:30N 48°36' W 123°03'2 3.5
2017-Jul-19 15:00N 48°37' W 123°00'0 0.0
2017-Jul-19 14:27N 48°37' W 123°00'0 0.0
2017-Jul-19 14:00N 48°37' W 123°00'0 0.0
2017-Jul-19 13:30N 48°37' W 123°00'0 0.0
2017-Jul-19 12:39N 48°37' W 123°00'0 0.0
2017-Jul-19 12:09N 48°37' W 123°00'0 0.0
2017-Jul-19 11:45N 48°37' W 123°00'0 0.0
2017-Jul-19 11:21N 48°37' W 123°00'0 0.0
2017-Jul-19 10:57N 48°37' W 123°00'0 0.0
2017-Jul-19 10:27N 48°37' W 123°00'0 0.0
2017-Jul-19 09:33N 48°37' W 123°00'0 0.0
2017-Jul-19 09:27N 48°37' W 123°00'0 0.0
2017-Jul-19 08:09N 48°37' W 123°00'0 0.0
2017-Jul-19 07:57N 48°37' W 123°00'0 0.0
2017-Jul-19 04:12N 48°37' W 123°00'0 0.0
2017-Jul-19 04:00N 48°37' W 123°00'0 0.0
2017-Jul-19 03:30N 48°37' W 123°00'0 0.0
2017-Jul-19 02:57N 48°37' W 123°00'0 0.0
2017-Jul-19 02:15N 48°37' W 123°00'0 0.0
2017-Jul-19 02:00N 48°37' W 123°00'0 0.0
2017-Jul-19 01:27N 48°37' W 123°00'0 0.0
2017-Jul-19 00:57N 48°37' W 123°00'0 0.0
2017-Jul-19 00:30N 48°37' W 123°00'0 0.0
2017-Jul-19 00:00N 48°37' W 123°00'0 0.0
2017-Jul-18 23:30N 48°37' W 123°00'0 0.0
2017-Jul-18 22:54N 48°37' W 123°00'0 0.0
2017-Jul-18 22:30N 48°37' W 123°00'0 0.0
2017-Jul-18 21:54N 48°37' W 123°00'0 0.0
2017-Jul-18 21:27N 48°37' W 123°00'0 0.0
2017-Jul-18 20:24N 48°37' W 123°00'0 0.0
2017-Jul-18 19:48N 48°37' W 123°00'0 0.0
2017-Jul-18 19:30N 48°37' W 123°00'0 0.0
2017-Jul-18 17:24N 48°37' W 123°00'0 0.0
2017-Jul-18 17:00N 48°37' W 123°00'0 0.0
2017-Jul-18 16:30N 48°37' W 123°00'0 0.0
2017-Jul-18 16:00N 48°37' W 123°00'0 0.0
2017-Jul-18 11:21N 48°37' W 123°00'0 0.0
2017-Jul-18 10:45N 48°37' W 123°00'0 0.0
2017-Jul-18 10:30N 48°37' W 123°00'0 0.0
2017-Jul-18 09:21N 48°37' W 123°00'0 0.0
2017-Jul-18 08:54N 48°37' W 123°00'0 0.0
2017-Jul-18 06:30N 48°37' W 123°00'0 0.0
2017-Jul-18 05:57N 48°37' W 123°00'0 0.0
2017-Jul-18 04:27N 48°37' W 123°00'0 0.0
2017-Jul-18 04:00N 48°37' W 123°00'0 0.0
2017-Jul-18 03:24N 48°37' W 123°00'0 0.0
2017-Jul-18 03:00N 48°37' W 123°00'0 0.0
2017-Jul-18 02:30N 48°37' W 123°00'0 0.0
2017-Jul-18 01:54N 48°37' W 123°00'0 0.0
2017-Jul-18 01:30N 48°37' W 123°00'0 0.0
2017-Jul-18 01:00N 48°37' W 123°00'0 0.0
2017-Jul-18 00:30N 48°37' W 123°00'0 0.0
2017-Jul-17 23:54N 48°37' W 123°00'0 0.0
2017-Jul-17 23:30N 48°37' W 123°00'0 0.5
2017-Jul-17 23:00N 48°37' W 123°00'4 7.1
2017-Jul-17 22:30N 48°35' W 122°55'5 9.2
2017-Jul-17 22:00N 48°33' W 122°50'5 9.2
2017-Jul-17 21:30N 48°31' W 122°43'5 0.2
2017-Jul-17 01:02N 48°31' W 122°36'1 4.6
2017-Jul-17 00:54N 48°31' W 122°36'4 9.8
2017-Jul-17 00:31N 48°31' W 122°42'5 9.7
2017-Jul-17 00:00N 48°32' W 122°49'5 9.7
2017-Jul-16 23:31N 48°35' W 122°54'5 9.4
2017-Jul-16 23:01N 48°36' W 123°01'4 8.7
2017-Jul-16 22:30N 48°38' W 123°07'4 7.7
2017-Jul-16 22:00N 48°38' W 123°13'510.1
2017-Jul-16 21:30N 48°39' W 123°21'3 5.2
2017-Jul-16 21:00N 48°40' W 123°24'0 0.0
2017-Jul-16 20:30N 48°40' W 123°24'0 0.0
2017-Jul-16 20:00N 48°40' W 123°24'0 0.0
2017-Jul-16 19:30N 48°40' W 123°24'0 0.0
2017-Jul-16 19:00N 48°40' W 123°24'0 0.0
2017-Jul-16 18:30N 48°40' W 123°24'0 0.0
2017-Jul-16 18:00N 48°40' W 123°24'0 0.0
2017-Jul-16 17:30N 48°40' W 123°24'0 0.0
2017-Jul-16 17:00N 48°40' W 123°24'0 0.0
2017-Jul-16 16:30N 48°40' W 123°24'0 0.0
2017-Jul-16 16:00N 48°40' W 123°24'0 0.0
2017-Jul-16 15:30N 48°40' W 123°24'0 0.0
2017-Jul-16 15:00N 48°40' W 123°24'0 0.0
2017-Jul-16 14:30N 48°40' W 123°24'0 0.0
2017-Jul-16 14:00N 48°40' W 123°24'0 0.0
2017-Jul-16 13:30N 48°40' W 123°24'0 0.0
2017-Jul-16 13:00N 48°40' W 123°24'0 0.0
2017-Jul-16 12:30N 48°40' W 123°24'0 0.0
2017-Jul-16 12:00N 48°40' W 123°24'0 0.0
2017-Jul-16 11:30N 48°40' W 123°24'0 0.0
2017-Jul-16 11:00N 48°40' W 123°24'0 0.0
2017-Jul-16 10:30N 48°40' W 123°24'0 0.0
2017-Jul-16 10:00N 48°40' W 123°24'0 0.0
2017-Jul-16 09:30N 48°40' W 123°24'0 0.0
2017-Jul-16 09:00N 48°40' W 123°24'0 0.0
2017-Jul-16 08:30N 48°40' W 123°24'0 0.0
2017-Jul-16 08:00N 48°40' W 123°24'0 0.0
2017-Jul-16 07:30N 48°40' W 123°24'0 0.0
2017-Jul-16 07:00N 48°40' W 123°24'0 0.0
2017-Jul-16 06:30N 48°40' W 123°24'0 0.0
2017-Jul-16 06:00N 48°40' W 123°24'0 0.0
2017-Jul-16 05:30N 48°40' W 123°24'0 0.0
2017-Jul-16 05:00N 48°40' W 123°24'0 0.0
2017-Jul-16 04:30N 48°40' W 123°24'0 0.0
2017-Jul-16 03:57N 48°40' W 123°24'0 0.0
2017-Jul-16 03:29N 48°40' W 123°24'0 0.0
2017-Jul-16 03:00N 48°40' W 123°24'0 0.0
2017-Jul-16 02:30N 48°40' W 123°24'0 0.0
2017-Jul-16 02:00N 48°40' W 123°24'0 0.0
2017-Jul-16 01:30N 48°40' W 123°24'0 0.0
2017-Jul-16 01:00N 48°40' W 123°24'0 0.0
2017-Jul-16 00:26N 48°40' W 123°24'0 0.0
2017-Jul-16 00:00N 48°40' W 123°24'0 0.0
2017-Jul-15 23:30N 48°40' W 123°24'0 0.0
2017-Jul-15 22:56N 48°40' W 123°24'0 0.0
2017-Jul-15 22:29N 48°40' W 123°24'0 0.0
2017-Jul-15 22:00N 48°40' W 123°24'0 0.0
2017-Jul-15 21:30N 48°40' W 123°24'0 0.0
2017-Jul-15 21:00N 48°40' W 123°24'0 0.0
2017-Jul-15 20:24N 48°40' W 123°24'0 0.0
2017-Jul-15 20:00N 48°40' W 123°24'0 0.0
2017-Jul-15 19:30N 48°40' W 123°24'0 0.0
2017-Jul-15 19:00N 48°40' W 123°24'0 0.0
2017-Jul-15 18:30N 48°40' W 123°24'0 0.0
2017-Jul-15 18:00N 48°40' W 123°24'0 0.0
2017-Jul-15 17:30N 48°40' W 123°24'0 0.0
2017-Jul-15 17:00N 48°40' W 123°24'0 0.0
2017-Jul-15 16:29N 48°40' W 123°24'0 0.0
2017-Jul-15 16:00N 48°40' W 123°24'0 0.0
2017-Jul-15 15:29N 48°40' W 123°24'0 0.0
2017-Jul-15 14:59N 48°40' W 123°24'0 0.0
2017-Jul-15 13:59N 48°40' W 123°24'0 0.0
2017-Jul-15 13:29N 48°40' W 123°24'0 0.0
2017-Jul-15 13:00N 48°40' W 123°24'0 0.0
2017-Jul-15 12:29N 48°40' W 123°24'0 0.0
2017-Jul-15 11:59N 48°40' W 123°24'0 0.0
2017-Jul-15 11:29N 48°40' W 123°24'0 0.0
2017-Jul-15 10:59N 48°40' W 123°24'0 0.0
2017-Jul-15 10:29N 48°40' W 123°24'0 0.0
2017-Jul-15 09:59N 48°40' W 123°24'0 0.0
2017-Jul-15 09:29N 48°40' W 123°24'0 0.0
2017-Jul-15 08:59N 48°40' W 123°24'0 0.0
2017-Jul-15 08:29N 48°40' W 123°24'0 0.0
2017-Jul-15 07:59N 48°40' W 123°24'0 0.0
2017-Jul-15 07:29N 48°40' W 123°24'0 0.0
2017-Jul-15 06:59N 48°40' W 123°24'0 0.0
2017-Jul-15 06:29N 48°40' W 123°24'0 0.0
2017-Jul-15 05:59N 48°40' W 123°24'0 0.0
2017-Jul-15 05:29N 48°40' W 123°24'0 0.0
2017-Jul-15 04:59N 48°40' W 123°24'0 0.0
2017-Jul-15 04:29N 48°40' W 123°24'0 0.0
2017-Jul-15 04:00N 48°40' W 123°24'0 0.0
2017-Jul-15 03:26N 48°40' W 123°24'0 0.0
2017-Jul-15 02:59N 48°40' W 123°24'0 0.0
2017-Jul-15 02:29N 48°40' W 123°24'0 0.0
2017-Jul-15 01:59N 48°40' W 123°24'0 0.0
2017-Jul-15 01:29N 48°40' W 123°24'0 0.0
2017-Jul-15 00:59N 48°40' W 123°24'0 0.0
2017-Jul-15 00:29N 48°40' W 123°24'0 0.0
2017-Jul-14 23:59N 48°40' W 123°24'0 0.0
2017-Jul-14 23:29N 48°40' W 123°24'0 0.0
2017-Jul-14 22:59N 48°40' W 123°24'0 0.0
2017-Jul-14 22:29N 48°40' W 123°24'0 0.0
2017-Jul-14 21:59N 48°40' W 123°24'0 0.0
2017-Jul-14 21:29N 48°40' W 123°24'0 0.0
2017-Jul-14 20:56N 48°40' W 123°24'  
Track history (hours):
 
Tides and Currents Weather Stations Pressure Air Temp Water Temp Dewpoint Dewpoint Depression Visibility Wind Speed Wind Dir Waves Ship Positions

Alexis

Owner: Fordham, robert E, Monroe, WA. More information available from US FCC via Universal Licensing System and Coast Guard Vessel Documentation Center.

Last reported at 2017-Jul-24 18:30 UTC. Time now 2017-Jul-24 18:27 UTC.
Position N 48°24' W 123°18'.

Length 28 m; draft 2 m.

Type: Pleasure craft. MMSI: 366904250.

Date/timePositionNaut miles runAvg speedWind from/ knotsBaromVisibWave heightAir tempDewpointWater temp
2017-Jul-24 18:30N 48°24' W 123°18'4 8.3
2017-Jul-24 18:01N 48°25' W 123°24'1 0.1
2017-Jul-24 00:50N 48°25' W 123°22'1 3.5
2017-Jul-24 00:30N 48°25' W 123°24'4 7.7
2017-Jul-24 00:00N 48°24' W 123°18'4 8.8
2017-Jul-23 23:30N 48°28' W 123°16'4 8.9
2017-Jul-23 23:00N 48°32' W 123°20'4 7.9
2017-Jul-23 22:29N 48°36' W 123°22'3 7.0
2017-Jul-23 22:00N 48°39' W 123°23'2 3.1
2017-Jul-23 21:28N 48°40' W 123°24'0 0.0
2017-Jul-23 20:58N 48°40' W 123°24'0 0.0
2017-Jul-23 20:28N 48°40' W 123°24'0 0.0
2017-Jul-23 19:58N 48°40' W 123°24'0 0.0
2017-Jul-23 19:28N 48°40' W 123°24'0 0.0
2017-Jul-23 18:58N 48°40' W 123°24'0 0.0
2017-Jul-23 18:28N 48°40' W 123°24'0 0.0
2017-Jul-23 17:58N 48°40' W 123°24'0 0.0
2017-Jul-23 17:25N 48°40' W 123°24'0 0.0
2017-Jul-23 16:58N 48°40' W 123°24'0 0.0
2017-Jul-23 16:28N 48°40' W 123°24'0 0.0
2017-Jul-23 15:58N 48°40' W 123°24'0 0.0
2017-Jul-23 15:28N 48°40' W 123°24'0 0.0
2017-Jul-23 14:58N 48°40' W 123°24'0 0.0
2017-Jul-23 14:25N 48°40' W 123°24'0 0.0
2017-Jul-23 13:58N 48°40' W 123°24'0 0.0
2017-Jul-23 13:28N 48°40' W 123°24'0 0.0
2017-Jul-23 12:58N 48°40' W 123°24'0 0.0
2017-Jul-23 12:28N 48°40' W 123°24'0 0.0
2017-Jul-23 11:58N 48°40' W 123°24'0 0.0
2017-Jul-23 11:28N 48°40' W 123°24'0 0.0
2017-Jul-23 10:55N 48°40' W 123°24'0 0.0
2017-Jul-23 10:28N 48°40' W 123°24'0 0.0
2017-Jul-23 09:58N 48°40' W 123°24'0 0.0
2017-Jul-23 09:28N 48°40' W 123°24'0 0.0
2017-Jul-23 08:58N 48°40' W 123°24'0 0.0
2017-Jul-23 08:28N 48°40' W 123°24'0 0.0
2017-Jul-23 07:58N 48°40' W 123°24'0 0.0
2017-Jul-23 07:28N 48°40' W 123°24'0 0.0
2017-Jul-23 06:52N 48°40' W 123°24'0 0.0
2017-Jul-23 06:28N 48°40' W 123°24'0 0.0
2017-Jul-23 05:58N 48°40' W 123°24'0 0.0
2017-Jul-23 05:28N 48°40' W 123°24'0 0.0
2017-Jul-23 04:58N 48°40' W 123°24'0 0.0
2017-Jul-23 04:28N 48°40' W 123°24'0 0.0
2017-Jul-23 03:58N 48°40' W 123°24'0 0.0
2017-Jul-23 03:28N 48°40' W 123°24'0 0.0
2017-Jul-23 02:58N 48°40' W 123°24'0 0.0
2017-Jul-23 02:28N 48°40' W 123°24'0 0.0
2017-Jul-23 01:58N 48°40' W 123°24'0 0.0
2017-Jul-23 01:28N 48°40' W 123°24'0 0.0
2017-Jul-23 00:58N 48°40' W 123°24'0 0.0
2017-Jul-23 00:28N 48°40' W 123°24'0 0.0
2017-Jul-22 23:58N 48°40' W 123°24'0 0.0
2017-Jul-22 23:25N 48°40' W 123°24'0 0.0
2017-Jul-22 22:58N 48°40' W 123°24'0 0.0
2017-Jul-22 22:28N 48°40' W 123°24'0 0.0
2017-Jul-22 21:58N 48°40' W 123°24'0 0.0
2017-Jul-22 21:28N 48°40' W 123°24'0 0.0
2017-Jul-22 20:58N 48°40' W 123°24'0 0.0
2017-Jul-22 20:28N 48°40' W 123°24'0 0.0
2017-Jul-22 19:58N 48°40' W 123°24'0 0.0
2017-Jul-22 19:28N 48°40' W 123°24'0 0.0
2017-Jul-22 18:58N 48°40' W 123°24'0 0.0
2017-Jul-22 18:28N 48°40' W 123°24'0 0.0
2017-Jul-22 17:58N 48°40' W 123°24'0 0.0
2017-Jul-22 17:28N 48°40' W 123°24'0 0.0
2017-Jul-22 16:58N 48°40' W 123°24'0 0.0
2017-Jul-22 16:28N 48°40' W 123°24'0 0.0
2017-Jul-22 15:58N 48°40' W 123°24'0 0.0
2017-Jul-22 15:28N 48°40' W 123°24'0 0.0
2017-Jul-22 14:58N 48°40' W 123°24'0 0.0
2017-Jul-22 13:58N 48°40' W 123°24'0 0.0
2017-Jul-22 13:28N 48°40' W 123°24'0 0.0
2017-Jul-22 12:58N 48°40' W 123°24'0 0.0
2017-Jul-22 12:28N 48°40' W 123°24'0 0.0
2017-Jul-22 11:58N 48°40' W 123°24'0 0.0
2017-Jul-22 11:28N 48°40' W 123°24'0 0.0
2017-Jul-22 10:58N 48°40' W 123°24'0 0.0
2017-Jul-22 10:28N 48°40' W 123°24'0 0.0
2017-Jul-22 09:58N 48°40' W 123°24'0 0.0
2017-Jul-22 09:28N 48°40' W 123°24'0 0.0
2017-Jul-22 08:58N 48°40' W 123°24'0 0.0
2017-Jul-22 08:28N 48°40' W 123°24'0 0.0
2017-Jul-22 07:55N 48°40' W 123°24'0 0.0
2017-Jul-22 07:28N 48°40' W 123°24'0 0.0
2017-Jul-22 06:58N 48°40' W 123°24'0 0.0
2017-Jul-22 06:28N 48°40' W 123°24'0 0.0
2017-Jul-22 05:58N 48°40' W 123°24'0 0.0
2017-Jul-22 05:28N 48°40' W 123°24'0 0.0
2017-Jul-22 04:58N 48°40' W 123°24'0 0.0
2017-Jul-22 04:28N 48°40' W 123°24'0 0.0
2017-Jul-22 03:58N 48°40' W 123°24'0 0.0
2017-Jul-22 03:28N 48°40' W 123°24'0 0.0
2017-Jul-22 02:58N 48°40' W 123°24'0 0.0
2017-Jul-22 02:28N 48°40' W 123°24'0 0.0
2017-Jul-22 01:58N 48°40' W 123°24'0 0.0
2017-Jul-22 01:28N 48°40' W 123°24'0 0.0
2017-Jul-22 00:58N 48°40' W 123°24'0 0.0
2017-Jul-22 00:28N 48°40' W 123°24'0 0.0
2017-Jul-21 23:58N 48°40' W 123°24'0 0.0
2017-Jul-21 23:28N 48°40' W 123°24'0 0.0
2017-Jul-21 22:58N 48°40' W 123°24'0 0.0
2017-Jul-21 22:28N 48°40' W 123°24'0 0.0
2017-Jul-21 21:58N 48°40' W 123°24'0 0.0
2017-Jul-21 21:28N 48°40' W 123°24'0 0.0
2017-Jul-21 20:58N 48°40' W 123°24'0 0.0
2017-Jul-21 20:28N 48°40' W 123°24'0 0.0
2017-Jul-21 19:58N 48°40' W 123°24'0 0.0
2017-Jul-21 19:28N 48°40' W 123°24'0 0.0
2017-Jul-21 18:58N 48°40' W 123°24'0 0.0
2017-Jul-21 18:28N 48°40' W 123°24'0 0.0
2017-Jul-21 17:52N 48°40' W 123°24'0 0.0
2017-Jul-21 17:28N 48°40' W 123°24'0 0.0
2017-Jul-21 16:58N 48°40' W 123°24'0 0.0
2017-Jul-21 16:28N 48°40' W 123°24'2 5.2
2017-Jul-21 16:00N 48°43' W 123°23'10 0.2
2017-Jul-19 19:29N 48°52' W 123°24'610.1
2017-Jul-19 18:54N 48°47' W 123°20'410.6
2017-Jul-19 18:30N 48°43' W 123°21'3 5.9
2017-Jul-19 18:00N 48°40' W 123°24'0 0.7
2017-Jul-19 17:29N 48°40' W 123°24'1 1.6
2017-Jul-19 17:00N 48°40' W 123°23'5 9.5
2017-Jul-19 16:30N 48°38' W 123°17'5 9.4
2017-Jul-19 16:00N 48°38' W 123°09'5 9.7
2017-Jul-19 15:30N 48°36' W 123°03'2 3.5
2017-Jul-19 15:00N 48°37' W 123°00'0 0.0
2017-Jul-19 14:27N 48°37' W 123°00'0 0.0
2017-Jul-19 14:00N 48°37' W 123°00'0 0.0
2017-Jul-19 13:30N 48°37' W 123°00'0 0.0
2017-Jul-19 12:39N 48°37' W 123°00'0 0.0
2017-Jul-19 12:09N 48°37' W 123°00'0 0.0
2017-Jul-19 11:45N 48°37' W 123°00'0 0.0
2017-Jul-19 11:21N 48°37' W 123°00'0 0.0
2017-Jul-19 10:57N 48°37' W 123°00'0 0.0
2017-Jul-19 10:27N 48°37' W 123°00'0 0.0
2017-Jul-19 09:33N 48°37' W 123°00'0 0.0
2017-Jul-19 09:27N 48°37' W 123°00'0 0.0
2017-Jul-19 08:09N 48°37' W 123°00'0 0.0
2017-Jul-19 07:57N 48°37' W 123°00'0 0.0
2017-Jul-19 04:12N 48°37' W 123°00'0 0.0
2017-Jul-19 04:00N 48°37' W 123°00'0 0.0
2017-Jul-19 03:30N 48°37' W 123°00'0 0.0
2017-Jul-19 02:57N 48°37' W 123°00'0 0.0
2017-Jul-19 02:15N 48°37' W 123°00'0 0.0
2017-Jul-19 02:00N 48°37' W 123°00'0 0.0
2017-Jul-19 01:27N 48°37' W 123°00'0 0.0
2017-Jul-19 00:57N 48°37' W 123°00'0 0.0
2017-Jul-19 00:30N 48°37' W 123°00'0 0.0
2017-Jul-19 00:00N 48°37' W 123°00'0 0.0
2017-Jul-18 23:30N 48°37' W 123°00'0 0.0
2017-Jul-18 22:54N 48°37' W 123°00'0 0.0
2017-Jul-18 22:30N 48°37' W 123°00'0 0.0
2017-Jul-18 21:54N 48°37' W 123°00'0 0.0
2017-Jul-18 21:27N 48°37' W 123°00'0 0.0
2017-Jul-18 20:24N 48°37' W 123°00'0 0.0
2017-Jul-18 19:48N 48°37' W 123°00'0 0.0
2017-Jul-18 19:30N 48°37' W 123°00'0 0.0
2017-Jul-18 17:24N 48°37' W 123°00'0 0.0
2017-Jul-18 17:00N 48°37' W 123°00'0 0.0
2017-Jul-18 16:30N 48°37' W 123°00'0 0.0
2017-Jul-18 16:00N 48°37' W 123°00'0 0.0
2017-Jul-18 11:21N 48°37' W 123°00'0 0.0
2017-Jul-18 10:45N 48°37' W 123°00'0 0.0
2017-Jul-18 10:30N 48°37' W 123°00'0 0.0
2017-Jul-18 09:21N 48°37' W 123°00'0 0.0
2017-Jul-18 08:54N 48°37' W 123°00'0 0.0
2017-Jul-18 06:30N 48°37' W 123°00'0 0.0
2017-Jul-18 05:57N 48°37' W 123°00'0 0.0
2017-Jul-18 04:27N 48°37' W 123°00'0 0.0
2017-Jul-18 04:00N 48°37' W 123°00'0 0.0
2017-Jul-18 03:24N 48°37' W 123°00'0 0.0
2017-Jul-18 03:00N 48°37' W 123°00'0 0.0
2017-Jul-18 02:30N 48°37' W 123°00'0 0.0
2017-Jul-18 01:54N 48°37' W 123°00'0 0.0
2017-Jul-18 01:30N 48°37' W 123°00'0 0.0
2017-Jul-18 01:00N 48°37' W 123°00'0 0.0
2017-Jul-18 00:30N 48°37' W 123°00'0 0.0
2017-Jul-17 23:54N 48°37' W 123°00'0 0.0
2017-Jul-17 23:30N 48°37' W 123°00'0 0.5
2017-Jul-17 23:00N 48°37' W 123°00'4 7.1
2017-Jul-17 22:30N 48°35' W 122°55'5 9.2
2017-Jul-17 22:00N 48°33' W 122°50'5 9.2
2017-Jul-17 21:30N 48°31' W 122°43'5 0.2
2017-Jul-17 01:02N 48°31' W 122°36'1 4.6
2017-Jul-17 00:54N 48°31' W 122°36'4 9.8
2017-Jul-17 00:31N 48°31' W 122°42'5 9.7
2017-Jul-17 00:00N 48°32' W 122°49'5 9.7
2017-Jul-16 23:31N 48°35' W 122°54'5 9.4
2017-Jul-16 23:01N 48°36' W 123°01'4 8.7
2017-Jul-16 22:30N 48°38' W 123°07'4 7.7
2017-Jul-16 22:00N 48°38' W 123°13'510.1
2017-Jul-16 21:30N 48°39' W 123°21'3 5.2
2017-Jul-16 21:00N 48°40' W 123°24'0 0.0
2017-Jul-16 20:30N 48°40' W 123°24'0 0.0
2017-Jul-16 20:00N 48°40' W 123°24'0 0.0
2017-Jul-16 19:30N 48°40' W 123°24'0 0.0
2017-Jul-16 19:00N 48°40' W 123°24'0 0.0
2017-Jul-16 18:30N 48°40' W 123°24'0 0.0
2017-Jul-16 18:00N 48°40' W 123°24'0 0.0
2017-Jul-16 17:30N 48°40' W 123°24'0 0.0
2017-Jul-16 17:00N 48°40' W 123°24'0 0.0
2017-Jul-16 16:30N 48°40' W 123°24'0 0.0
2017-Jul-16 16:00N 48°40' W 123°24'0 0.0
2017-Jul-16 15:30N 48°40' W 123°24'0 0.0
2017-Jul-16 15:00N 48°40' W 123°24'0 0.0
2017-Jul-16 14:30N 48°40' W 123°24'0 0.0
2017-Jul-16 14:00N 48°40' W 123°24'0 0.0
2017-Jul-16 13:30N 48°40' W 123°24'0 0.0
2017-Jul-16 13:00N 48°40' W 123°24'0 0.0
2017-Jul-16 12:30N 48°40' W 123°24'0 0.0
2017-Jul-16 12:00N 48°40' W 123°24'0 0.0
2017-Jul-16 11:30N 48°40' W 123°24'0 0.0
2017-Jul-16 11:00N 48°40' W 123°24'0 0.0
2017-Jul-16 10:30N 48°40' W 123°24'0 0.0
2017-Jul-16 10:00N 48°40' W 123°24'0 0.0
2017-Jul-16 09:30N 48°40' W 123°24'0 0.0
2017-Jul-16 09:00N 48°40' W 123°24'0 0.0
2017-Jul-16 08:30N 48°40' W 123°24'0 0.0
2017-Jul-16 08:00N 48°40' W 123°24'0 0.0
2017-Jul-16 07:30N 48°40' W 123°24'0 0.0
2017-Jul-16 07:00N 48°40' W 123°24'0 0.0
2017-Jul-16 06:30N 48°40' W 123°24'0 0.0
2017-Jul-16 06:00N 48°40' W 123°24'0 0.0
2017-Jul-16 05:30N 48°40' W 123°24'0 0.0
2017-Jul-16 05:00N 48°40' W 123°24'0 0.0
2017-Jul-16 04:30N 48°40' W 123°24'0 0.0
2017-Jul-16 03:57N 48°40' W 123°24'0 0.0
2017-Jul-16 03:29N 48°40' W 123°24'0 0.0
2017-Jul-16 03:00N 48°40' W 123°24'0 0.0
2017-Jul-16 02:30N 48°40' W 123°24'0 0.0
2017-Jul-16 02:00N 48°40' W 123°24'0 0.0
2017-Jul-16 01:30N 48°40' W 123°24'0 0.0
2017-Jul-16 01:00N 48°40' W 123°24'0 0.0
2017-Jul-16 00:26N 48°40' W 123°24'0 0.0
2017-Jul-16 00:00N 48°40' W 123°24'0 0.0
2017-Jul-15 23:30N 48°40' W 123°24'0 0.0
2017-Jul-15 22:56N 48°40' W 123°24'0 0.0
2017-Jul-15 22:29N 48°40' W 123°24'0 0.0
2017-Jul-15 22:00N 48°40' W 123°24'0 0.0
2017-Jul-15 21:30N 48°40' W 123°24'0 0.0
2017-Jul-15 21:00N 48°40' W 123°24'0 0.0
2017-Jul-15 20:24N 48°40' W 123°24'0 0.0
2017-Jul-15 20:00N 48°40' W 123°24'0 0.0
2017-Jul-15 19:30N 48°40' W 123°24'0 0.0
2017-Jul-15 19:00N 48°40' W 123°24'0 0.0
2017-Jul-15 18:30N 48°40' W 123°24'0 0.0
2017-Jul-15 18:00N 48°40' W 123°24'0 0.0
2017-Jul-15 17:30N 48°40' W 123°24'0 0.0
2017-Jul-15 17:00N 48°40' W 123°24'0 0.0
2017-Jul-15 16:29N 48°40' W 123°24'0 0.0
2017-Jul-15 16:00N 48°40' W 123°24'0 0.0
2017-Jul-15 15:29N 48°40' W 123°24'0 0.0
2017-Jul-15 14:59N 48°40' W 123°24'0 0.0
2017-Jul-15 13:59N 48°40' W 123°24'0 0.0
2017-Jul-15 13:29N 48°40' W 123°24'0 0.0
2017-Jul-15 13:00N 48°40' W 123°24'0 0.0
2017-Jul-15 12:29N 48°40' W 123°24'0 0.0
2017-Jul-15 11:59N 48°40' W 123°24'0 0.0
2017-Jul-15 11:29N 48°40' W 123°24'0 0.0
2017-Jul-15 10:59N 48°40' W 123°24'0 0.0
2017-Jul-15 10:29N 48°40' W 123°24'0 0.0
2017-Jul-15 09:59N 48°40' W 123°24'0 0.0
2017-Jul-15 09:29N 48°40' W 123°24'0 0.0
2017-Jul-15 08:59N 48°40' W 123°24'0 0.0
2017-Jul-15 08:29N 48°40' W 123°24'0 0.0
2017-Jul-15 07:59N 48°40' W 123°24'0 0.0
2017-Jul-15 07:29N 48°40' W 123°24'0 0.0
2017-Jul-15 06:59N 48°40' W 123°24'0 0.0
2017-Jul-15 06:29N 48°40' W 123°24'0 0.0
2017-Jul-15 05:59N 48°40' W 123°24'0 0.0
2017-Jul-15 05:29N 48°40' W 123°24'0 0.0
2017-Jul-15 04:59N 48°40' W 123°24'0 0.0
2017-Jul-15 04:29N 48°40' W 123°24'0 0.0
2017-Jul-15 04:00N 48°40' W 123°24'0 0.0
2017-Jul-15 03:26N 48°40' W 123°24'0 0.0
2017-Jul-15 02:59N 48°40' W 123°24'0 0.0
2017-Jul-15 02:29N 48°40' W 123°24'0 0.0
2017-Jul-15 01:59N 48°40' W 123°24'0 0.0
2017-Jul-15 01:29N 48°40' W 123°24'0 0.0
2017-Jul-15 00:59N 48°40' W 123°24'0 0.0
2017-Jul-15 00:29N 48°40' W 123°24'0 0.0
2017-Jul-14 23:59N 48°40' W 123°24'0 0.0
2017-Jul-14 23:29N 48°40' W 123°24'0 0.0
2017-Jul-14 22:59N 48°40' W 123°24'0 0.0
2017-Jul-14 22:29N 48°40' W 123°24'0 0.0
2017-Jul-14 21:59N 48°40' W 123°24'0 0.0
2017-Jul-14 21:29N 48°40' W 123°24'0 0.0
2017-Jul-14 20:56N 48°40' W 123°24'  

Dump ship's entire track history